Marfrance, West Virginia
Current Conditions -  °F | °C
As of 12:35 PM on Thursday 30 Oct 2014 (Local Time) from KLWB Reporting Station
Broken Clouds Broken Clouds  
Wind Chill: 46°   Ceiling: 2900
Heat Index: 46°   Visibility: 10mi
Dew Point: 32°   Wind: 3mph
Humidity: 58%   Direction: 340°NNW
Pressure: 30.1"   Gusts: NA
Location:  38.054°N, 80.6739°W
Report Text: KLWB 301635Z AUTO 34003KT 10SM BKN029 08/00 A3010 RMK AO2 T00751002
Loading
Personal Weather Stations






























Interactive Weather Map
Tropical Storm Tracking
New forecast layout! Learn more

10-Day Weather Forecast

Advertisements
Track Severe Weather on mobile